sensor_id;sensor_type;location;lat;lon;timestamp;P1;durP1;ratioP1;P2;durP2;ratioP2
29908;SDS011;36247;51.952;6.146;2023-03-21T00:01:11;28.92;;;16.83;;
29908;SDS011;36247;51.952;6.146;2023-03-21T00:03:38;37.97;;;19.67;;
29908;SDS011;36247;51.952;6.146;2023-03-21T00:06:05;33.72;;;17.02;;
29908;SDS011;36247;51.952;6.146;2023-03-21T00:08:31;37.22;;;18.02;;
29908;SDS011;36247;51.952;6.146;2023-03-21T00:10:58;43.03;;;19.98;;
29908;SDS011;36247;51.952;6.146;2023-03-21T00:13:25;32.00;;;18.92;;
29908;SDS011;36247;51.952;6.146;2023-03-21T00:15:56;32.72;;;18.63;;
29908;SDS011;36247;51.952;6.146;2023-03-21T00:18:22;40.42;;;20.20;;
29908;SDS011;36247;51.952;6.146;2023-03-21T00:20:59;36.67;;;18.98;;
29908;SDS011;36247;51.952;6.146;2023-03-21T00:23:27;32.45;;;18.85;;
29908;SDS011;36247;51.952;6.146;2023-03-21T00:25:53;31.30;;;18.83;;
29908;SDS011;36247;51.952;6.146;2023-03-21T00:28:19;35.25;;;19.73;;
29908;SDS011;36247;51.952;6.146;2023-03-21T00:30:47;30.63;;;18.77;;
29908;SDS011;36247;51.952;6.146;2023-03-21T00:33:13;33.83;;;20.02;;
29908;SDS011;36247;51.952;6.146;2023-03-21T00:35:39;30.77;;;18.58;;
29908;SDS011;36247;51.952;6.146;2023-03-21T00:38:09;36.80;;;19.95;;
29908;SDS011;36247;51.952;6.146;2023-03-21T00:40:35;35.13;;;19.17;;
29908;SDS011;36247;51.952;6.146;2023-03-21T00:43:00;37.58;;;20.02;;
29908;SDS011;36247;51.952;6.146;2023-03-21T00:45:26;34.83;;;20.05;;
29908;SDS011;36247;51.952;6.146;2023-03-21T00:47:52;34.53;;;20.67;;
29908;SDS011;36247;51.952;6.146;2023-03-21T00:50:17;40.80;;;20.60;;
29908;SDS011;36247;51.952;6.146;2023-03-21T00:52:43;33.38;;;18.67;;
29908;SDS011;36247;51.952;6.146;2023-03-21T00:55:11;31.60;;;18.75;;
29908;SDS011;36247;51.952;6.146;2023-03-21T00:57:38;36.20;;;20.63;;
29908;SDS011;36247;51.952;6.146;2023-03-21T01:00:04;30.70;;;18.17;;
29908;SDS011;36247;51.952;6.146;2023-03-21T01:02:31;31.92;;;18.45;;
29908;SDS011;36247;51.952;6.146;2023-03-21T01:04:57;29.90;;;17.10;;
29908;SDS011;36247;51.952;6.146;2023-03-21T01:07:22;28.10;;;18.23;;
29908;SDS011;36247;51.952;6.146;2023-03-21T01:09:48;30.58;;;19.70;;
29908;SDS011;36247;51.952;6.146;2023-03-21T01:12:13;30.63;;;16.52;;
29908;SDS011;36247;51.952;6.146;2023-03-21T01:14:38;24.55;;;16.50;;
29908;SDS011;36247;51.952;6.146;2023-03-21T01:17:04;30.77;;;18.33;;
29908;SDS011;36247;51.952;6.146;2023-03-21T01:19:30;30.67;;;18.67;;
29908;SDS011;36247;51.952;6.146;2023-03-21T01:21:56;27.13;;;18.20;;
29908;SDS011;36247;51.952;6.146;2023-03-21T01:24:23;28.75;;;19.20;;
29908;SDS011;36247;51.952;6.146;2023-03-21T01:26:49;36.60;;;20.15;;
29908;SDS011;36247;51.952;6.146;2023-03-21T01:29:15;28.50;;;19.30;;
29908;SDS011;36247;51.952;6.146;2023-03-21T01:31:40;36.67;;;19.77;;
29908;SDS011;36247;51.952;6.146;2023-03-21T01:34:06;34.15;;;21.25;;
29908;SDS011;36247;51.952;6.146;2023-03-21T01:36:31;34.80;;;19.33;;
29908;SDS011;36247;51.952;6.146;2023-03-21T01:39:03;23.20;;;15.88;;
29908;SDS011;36247;51.952;6.146;2023-03-21T01:43:59;31.48;;;19.65;;
29908;SDS011;36247;51.952;6.146;2023-03-21T01:46:42;32.53;;;21.17;;
29908;SDS011;36247;51.952;6.146;2023-03-21T01:49:53;34.90;;;18.83;;
29908;SDS011;36247;51.952;6.146;2023-03-21T01:52:32;34.78;;;20.10;;
29908;SDS011;36247;51.952;6.146;2023-03-21T01:55:02;34.58;;;19.77;;
29908;SDS011;36247;51.952;6.146;2023-03-21T01:57:39;29.95;;;20.85;;
29908;SDS011;36247;51.952;6.146;2023-03-21T02:00:10;37.15;;;21.58;;
29908;SDS011;36247;51.952;6.146;2023-03-21T02:02:55;32.97;;;21.35;;
29908;SDS011;36247;51.952;6.146;2023-03-21T02:08:30;33.22;;;19.73;;
29908;SDS011;36247;51.952;6.146;2023-03-21T02:10:58;30.02;;;19.58;;
29908;SDS011;36247;51.952;6.146;2023-03-21T02:13:39;32.22;;;19.95;;
29908;SDS011;36247;51.952;6.146;2023-03-21T02:27:47;35.05;;;19.55;;
29908;SDS011;36247;51.952;6.146;2023-03-21T02:30:28;28.60;;;18.05;;
29908;SDS011;36247;51.952;6.146;2023-03-21T02:39:01;38.90;;;20.98;;
29908;SDS011;36247;51.952;6.146;2023-03-21T02:41:54;37.00;;;22.02;;
29908;SDS011;36247;51.952;6.146;2023-03-21T02:45:15;48.33;;;23.63;;
29908;SDS011;36247;51.952;6.146;2023-03-21T02:47:43;37.55;;;22.10;;
29908;SDS011;36247;51.952;6.146;2023-03-21T02:52:42;39.15;;;22.48;;
29908;SDS011;36247;51.952;6.146;2023-03-21T02:55:12;40.28;;;21.58;;
29908;SDS011;36247;51.952;6.146;2023-03-21T02:57:49;30.73;;;19.70;;
29908;SDS011;36247;51.952;6.146;2023-03-21T03:00:20;39.38;;;22.10;;
29908;SDS011;36247;51.952;6.146;2023-03-21T03:05:17;40.75;;;21.85;;
29908;SDS011;36247;51.952;6.146;2023-03-21T03:16:15;33.78;;;21.98;;
29908;SDS011;36247;51.952;6.146;2023-03-21T03:18:51;33.75;;;21.80;;
29908;SDS011;36247;51.952;6.146;2023-03-21T03:24:32;32.92;;;19.48;;
29908;SDS011;36247;51.952;6.146;2023-03-21T03:26:50;33.42;;;18.90;;
29908;SDS011;36247;51.952;6.146;2023-03-21T03:29:23;36.72;;;19.63;;
29908;SDS011;36247;51.952;6.146;2023-03-21T03:34:32;29.80;;;19.48;;
29908;SDS011;36247;51.952;6.146;2023-03-21T03:37:04;31.90;;;19.40;;
29908;SDS011;36247;51.952;6.146;2023-03-21T03:39:39;33.13;;;19.60;;
29908;SDS011;36247;51.952;6.146;2023-03-21T03:42:27;35.22;;;20.10;;
29908;SDS011;36247;51.952;6.146;2023-03-21T03:45:07;40.80;;;19.50;;
29908;SDS011;36247;51.952;6.146;2023-03-21T03:53:04;34.30;;;19.85;;
29908;SDS011;36247;51.952;6.146;2023-03-21T03:55:37;36.78;;;20.02;;
29908;SDS011;36247;51.952;6.146;2023-03-21T03:58:10;27.67;;;16.98;;
29908;SDS011;36247;51.952;6.146;2023-03-21T04:00:36;36.10;;;19.33;;
29908;SDS011;36247;51.952;6.146;2023-03-21T04:03:02;32.05;;;17.02;;
29908;SDS011;36247;51.952;6.146;2023-03-21T04:05:31;35.97;;;16.45;;
29908;SDS011;36247;51.952;6.146;2023-03-21T04:07:57;28.13;;;16.77;;
29908;SDS011;36247;51.952;6.146;2023-03-21T04:10:33;36.03;;;19.33;;
29908;SDS011;36247;51.952;6.146;2023-03-21T04:12:59;38.05;;;18.98;;
29908;SDS011;36247;51.952;6.146;2023-03-21T04:15:37;32.00;;;19.75;;
29908;SDS011;36247;51.952;6.146;2023-03-21T04:18:10;29.45;;;18.50;;
29908;SDS011;36247;51.952;6.146;2023-03-21T04:20:35;32.83;;;16.95;;
29908;SDS011;36247;51.952;6.146;2023-03-21T04:23:01;29.75;;;16.48;;
29908;SDS011;36247;51.952;6.146;2023-03-21T04:25:27;27.58;;;15.07;;
29908;SDS011;36247;51.952;6.146;2023-03-21T04:27:55;30.48;;;14.82;;
29908;SDS011;36247;51.952;6.146;2023-03-21T04:30:37;33.25;;;17.17;;
29908;SDS011;36247;51.952;6.146;2023-03-21T04:33:08;29.55;;;14.70;;
29908;SDS011;36247;51.952;6.146;2023-03-21T04:35:34;25.55;;;15.10;;
29908;SDS011;36247;51.952;6.146;2023-03-21T04:38:02;26.65;;;15.65;;
29908;SDS011;36247;51.952;6.146;2023-03-21T04:40:27;28.95;;;15.52;;
29908;SDS011;36247;51.952;6.146;2023-03-21T04:42:54;27.40;;;14.90;;
29908;SDS011;36247;51.952;6.146;2023-03-21T04:45:19;27.88;;;15.27;;
29908;SDS011;36247;51.952;6.146;2023-03-21T04:47:45;27.38;;;14.15;;
29908;SDS011;36247;51.952;6.146;2023-03-21T04:50:11;25.05;;;14.00;;
29908;SDS011;36247;51.952;6.146;2023-03-21T04:52:38;23.85;;;14.43;;
29908;SDS011;36247;51.952;6.146;2023-03-21T04:55:04;25.25;;;15.00;;
29908;SDS011;36247;51.952;6.146;2023-03-21T04:57:34;35.42;;;16.10;;
29908;SDS011;36247;51.952;6.146;2023-03-21T05:00:03;25.48;;;13.55;;
29908;SDS011;36247;51.952;6.146;2023-03-21T05:02:37;29.33;;;15.27;;
29908;SDS011;36247;51.952;6.146;2023-03-21T05:05:04;26.40;;;13.93;;
29908;SDS011;36247;51.952;6.146;2023-03-21T05:07:31;28.67;;;14.93;;
29908;SDS011;36247;51.952;6.146;2023-03-21T05:09:57;33.47;;;15.05;;
29908;SDS011;36247;51.952;6.146;2023-03-21T05:12:23;27.02;;;13.88;;
29908;SDS011;36247;51.952;6.146;2023-03-21T05:14:48;34.67;;;15.38;;
29908;SDS011;36247;51.952;6.146;2023-03-21T05:17:14;25.35;;;14.77;;
29908;SDS011;36247;51.952;6.146;2023-03-21T05:19:49;29.67;;;15.07;;
29908;SDS011;36247;51.952;6.146;2023-03-21T05:22:17;33.47;;;15.38;;
29908;SDS011;36247;51.952;6.146;2023-03-21T05:24:44;29.80;;;14.10;;
29908;SDS011;36247;51.952;6.146;2023-03-21T05:27:18;25.60;;;15.20;;
29908;SDS011;36247;51.952;6.146;2023-03-21T05:30:23;28.80;;;16.52;;
29908;SDS011;36247;51.952;6.146;2023-03-21T05:32:50;36.13;;;18.13;;
29908;SDS011;36247;51.952;6.146;2023-03-21T05:35:17;32.90;;;16.08;;
29908;SDS011;36247;51.952;6.146;2023-03-21T05:37:42;42.83;;;16.65;;
29908;SDS011;36247;51.952;6.146;2023-03-21T05:40:09;35.33;;;15.82;;
29908;SDS011;36247;51.952;6.146;2023-03-21T05:42:37;26.63;;;15.40;;
29908;SDS011;36247;51.952;6.146;2023-03-21T05:45:13;32.20;;;16.45;;
29908;SDS011;36247;51.952;6.146;2023-03-21T05:47:39;30.55;;;16.17;;
29908;SDS011;36247;51.952;6.146;2023-03-21T05:50:05;29.30;;;15.45;;
29908;SDS011;36247;51.952;6.146;2023-03-21T05:52:32;27.60;;;15.27;;
29908;SDS011;36247;51.952;6.146;2023-03-21T05:54:59;30.95;;;15.10;;
29908;SDS011;36247;51.952;6.146;2023-03-21T05:57:26;28.80;;;14.65;;
29908;SDS011;36247;51.952;6.146;2023-03-21T06:00:02;27.52;;;15.60;;
29908;SDS011;36247;51.952;6.146;2023-03-21T06:02:40;28.73;;;14.85;;
29908;SDS011;36247;51.952;6.146;2023-03-21T06:05:21;28.60;;;14.77;;
29908;SDS011;36247;51.952;6.146;2023-03-21T06:07:46;30.63;;;14.20;;
29908;SDS011;36247;51.952;6.146;2023-03-21T06:10:12;29.67;;;14.00;;
29908;SDS011;36247;51.952;6.146;2023-03-21T06:12:41;28.33;;;15.10;;
29908;SDS011;36247;51.952;6.146;2023-03-21T06:15:25;28.08;;;13.18;;
29908;SDS011;36247;51.952;6.146;2023-03-21T06:17:57;30.83;;;14.10;;
29908;SDS011;36247;51.952;6.146;2023-03-21T06:20:23;32.20;;;15.30;;
29908;SDS011;36247;51.952;6.146;2023-03-21T06:22:53;26.77;;;13.52;;
29908;SDS011;36247;51.952;6.146;2023-03-21T06:25:18;31.83;;;15.77;;
29908;SDS011;36247;51.952;6.146;2023-03-21T06:27:44;29.85;;;13.60;;
29908;SDS011;36247;51.952;6.146;2023-03-21T06:30:10;29.58;;;13.68;;
29908;SDS011;36247;51.952;6.146;2023-03-21T06:32:44;29.17;;;14.25;;
29908;SDS011;36247;51.952;6.146;2023-03-21T06:35:15;23.83;;;13.23;;
29908;SDS011;36247;51.952;6.146;2023-03-21T06:37:41;32.58;;;14.57;;
29908;SDS011;36247;51.952;6.146;2023-03-21T06:40:09;28.10;;;14.00;;
29908;SDS011;36247;51.952;6.146;2023-03-21T06:42:35;29.67;;;16.02;;
29908;SDS011;36247;51.952;6.146;2023-03-21T06:45:07;29.73;;;14.68;;
29908;SDS011;36247;51.952;6.146;2023-03-21T06:47:33;28.20;;;15.13;;
29908;SDS011;36247;51.952;6.146;2023-03-21T06:49:59;26.45;;;15.07;;
29908;SDS011;36247;51.952;6.146;2023-03-21T06:52:25;21.65;;;13.93;;
29908;SDS011;36247;51.952;6.146;2023-03-21T06:54:51;26.30;;;14.15;;
29908;SDS011;36247;51.952;6.146;2023-03-21T06:57:19;30.40;;;13.75;;
29908;SDS011;36247;51.952;6.146;2023-03-21T06:59:46;34.42;;;15.00;;
29908;SDS011;36247;51.952;6.146;2023-03-21T07:02:14;27.75;;;14.02;;
29908;SDS011;36247;51.952;6.146;2023-03-21T07:04:59;25.45;;;14.75;;
29908;SDS011;36247;51.952;6.146;2023-03-21T07:07:27;28.33;;;14.20;;
29908;SDS011;36247;51.952;6.146;2023-03-21T07:09:54;31.02;;;15.50;;
29908;SDS011;36247;51.952;6.146;2023-03-21T07:12:21;28.42;;;14.77;;
29908;SDS011;36247;51.952;6.146;2023-03-21T07:15:13;28.98;;;14.18;;
29908;SDS011;36247;51.952;6.146;2023-03-21T07:17:41;27.50;;;13.27;;
29908;SDS011;36247;51.952;6.146;2023-03-21T07:20:07;26.63;;;14.40;;
29908;SDS011;36247;51.952;6.146;2023-03-21T07:22:34;30.52;;;12.70;;
29908;SDS011;36247;51.952;6.146;2023-03-21T07:25:00;29.67;;;14.45;;
29908;SDS011;36247;51.952;6.146;2023-03-21T07:27:25;27.67;;;14.25;;
29908;SDS011;36247;51.952;6.146;2023-03-21T07:29:51;30.98;;;14.85;;
29908;SDS011;36247;51.952;6.146;2023-03-21T07:32:16;31.38;;;14.48;;
29908;SDS011;36247;51.952;6.146;2023-03-21T07:34:42;27.25;;;13.73;;
29908;SDS011;36247;51.952;6.146;2023-03-21T07:37:07;29.33;;;13.57;;
29908;SDS011;36247;51.952;6.146;2023-03-21T07:39:33;28.13;;;12.43;;
29908;SDS011;36247;51.952;6.146;2023-03-21T07:42:00;26.35;;;12.80;;
29908;SDS011;36247;51.952;6.146;2023-03-21T07:44:35;27.52;;;12.55;;
29908;SDS011;36247;51.952;6.146;2023-03-21T07:47:02;24.08;;;12.90;;
29908;SDS011;36247;51.952;6.146;2023-03-21T07:49:27;27.20;;;12.82;;
29908;SDS011;36247;51.952;6.146;2023-03-21T07:51:53;20.63;;;11.75;;
29908;SDS011;36247;51.952;6.146;2023-03-21T07:54:18;31.77;;;12.10;;
29908;SDS011;36247;51.952;6.146;2023-03-21T07:56:46;27.35;;;12.65;;
29908;SDS011;36247;51.952;6.146;2023-03-21T07:59:12;23.70;;;12.15;;
29908;SDS011;36247;51.952;6.146;2023-03-21T08:01:37;32.90;;;11.88;;
29908;SDS011;36247;51.952;6.146;2023-03-21T08:04:03;25.02;;;12.20;;
29908;SDS011;36247;51.952;6.146;2023-03-21T08:06:28;24.13;;;11.45;;
29908;SDS011;36247;51.952;6.146;2023-03-21T08:08:56;24.25;;;12.52;;
29908;SDS011;36247;51.952;6.146;2023-03-21T08:11:25;26.77;;;11.88;;
29908;SDS011;36247;51.952;6.146;2023-03-21T08:13:51;26.20;;;13.07;;
29908;SDS011;36247;51.952;6.146;2023-03-21T08:16:17;24.98;;;12.85;;
29908;SDS011;36247;51.952;6.146;2023-03-21T08:18:43;27.60;;;13.25;;
29908;SDS011;36247;51.952;6.146;2023-03-21T08:21:09;24.58;;;13.00;;
29908;SDS011;36247;51.952;6.146;2023-03-21T08:23:34;26.15;;;12.57;;
29908;SDS011;36247;51.952;6.146;2023-03-21T08:26:00;29.15;;;13.35;;
29908;SDS011;36247;51.952;6.146;2023-03-21T08:28:26;25.05;;;13.02;;
29908;SDS011;36247;51.952;6.146;2023-03-21T08:30:52;30.70;;;13.32;;
29908;SDS011;36247;51.952;6.146;2023-03-21T08:33:18;22.02;;;12.38;;
29908;SDS011;36247;51.952;6.146;2023-03-21T08:35:44;22.60;;;11.95;;
29908;SDS011;36247;51.952;6.146;2023-03-21T08:38:10;25.30;;;12.95;;
29908;SDS011;36247;51.952;6.146;2023-03-21T08:40:36;25.85;;;11.48;;
29908;SDS011;36247;51.952;6.146;2023-03-21T08:43:01;28.50;;;12.80;;
29908;SDS011;36247;51.952;6.146;2023-03-21T08:45:28;28.83;;;12.27;;
29908;SDS011;36247;51.952;6.146;2023-03-21T08:47:53;26.60;;;13.07;;
29908;SDS011;36247;51.952;6.146;2023-03-21T08:50:22;31.70;;;14.07;;
29908;SDS011;36247;51.952;6.146;2023-03-21T08:52:50;23.65;;;13.02;;
29908;SDS011;36247;51.952;6.146;2023-03-21T08:55:16;21.58;;;13.52;;
29908;SDS011;36247;51.952;6.146;2023-03-21T08:57:43;22.38;;;13.05;;
29908;SDS011;36247;51.952;6.146;2023-03-21T09:00:10;26.80;;;13.52;;
29908;SDS011;36247;51.952;6.146;2023-03-21T09:02:41;24.55;;;12.63;;
29908;SDS011;36247;51.952;6.146;2023-03-21T09:05:09;21.20;;;11.50;;
29908;SDS011;36247;51.952;6.146;2023-03-21T09:07:36;26.60;;;11.75;;
29908;SDS011;36247;51.952;6.146;2023-03-21T09:10:06;28.35;;;13.90;;
29908;SDS011;36247;51.952;6.146;2023-03-21T09:12:34;26.15;;;12.23;;
29908;SDS011;36247;51.952;6.146;2023-03-21T09:15:00;23.40;;;12.70;;
29908;SDS011;36247;51.952;6.146;2023-03-21T09:17:27;24.25;;;13.32;;
29908;SDS011;36247;51.952;6.146;2023-03-21T09:19:53;24.15;;;13.10;;
29908;SDS011;36247;51.952;6.146;2023-03-21T09:22:19;29.77;;;13.60;;
29908;SDS011;36247;51.952;6.146;2023-03-21T09:24:45;28.75;;;12.82;;
29908;SDS011;36247;51.952;6.146;2023-03-21T09:27:12;20.52;;;13.10;;
29908;SDS011;36247;51.952;6.146;2023-03-21T09:29:39;26.40;;;14.02;;
29908;SDS011;36247;51.952;6.146;2023-03-21T09:32:07;23.83;;;13.32;;
29908;SDS011;36247;51.952;6.146;2023-03-21T09:34:33;23.55;;;12.45;;
29908;SDS011;36247;51.952;6.146;2023-03-21T09:37:01;22.83;;;11.95;;
29908;SDS011;36247;51.952;6.146;2023-03-21T09:39:27;26.00;;;12.98;;
29908;SDS011;36247;51.952;6.146;2023-03-21T09:47:23;24.25;;;12.52;;
29908;SDS011;36247;51.952;6.146;2023-03-21T09:49:58;22.88;;;11.68;;
29908;SDS011;36247;51.952;6.146;2023-03-21T09:53:04;23.55;;;11.10;;
29908;SDS011;36247;51.952;6.146;2023-03-21T09:55:36;23.70;;;11.43;;
29908;SDS011;36247;51.952;6.146;2023-03-21T09:58:26;25.05;;;11.68;;
29908;SDS011;36247;51.952;6.146;2023-03-21T10:00:53;18.70;;;11.55;;
29908;SDS011;36247;51.952;6.146;2023-03-21T10:03:28;21.98;;;11.15;;
29908;SDS011;36247;51.952;6.146;2023-03-21T10:05:59;25.75;;;12.05;;
29908;SDS011;36247;51.952;6.146;2023-03-21T10:08:29;23.52;;;10.52;;
29908;SDS011;36247;51.952;6.146;2023-03-21T10:13:33;21.63;;;10.90;;
29908;SDS011;36247;51.952;6.146;2023-03-21T10:16:09;25.42;;;10.27;;
29908;SDS011;36247;51.952;6.146;2023-03-21T10:18:50;17.45;;;10.95;;
29908;SDS011;36247;51.952;6.146;2023-03-21T10:21:26;19.70;;;10.50;;
29908;SDS011;36247;51.952;6.146;2023-03-21T10:23:53;16.85;;;10.45;;
29908;SDS011;36247;51.952;6.146;2023-03-21T10:26:23;22.58;;;11.40;;
29908;SDS011;36247;51.952;6.146;2023-03-21T10:28:52;20.92;;;10.70;;
29908;SDS011;36247;51.952;6.146;2023-03-21T10:31:23;14.30;;;9.73;;
29908;SDS011;36247;51.952;6.146;2023-03-21T10:34:02;17.77;;;10.70;;
29908;SDS011;36247;51.952;6.146;2023-03-21T10:36:33;17.60;;;10.30;;
29908;SDS011;36247;51.952;6.146;2023-03-21T10:41:37;19.55;;;10.27;;
29908;SDS011;36247;51.952;6.146;2023-03-21T10:44:11;20.20;;;9.73;;
29908;SDS011;36247;51.952;6.146;2023-03-21T10:46:57;21.88;;;10.90;;
29908;SDS011;36247;51.952;6.146;2023-03-21T10:49:29;20.52;;;9.63;;
29908;SDS011;36247;51.952;6.146;2023-03-21T10:52:00;22.00;;;9.95;;
29908;SDS011;36247;51.952;6.146;2023-03-21T10:54:29;17.52;;;10.25;;
29908;SDS011;36247;51.952;6.146;2023-03-21T10:56:57;22.92;;;10.43;;
29908;SDS011;36247;51.952;6.146;2023-03-21T10:59:27;20.27;;;10.98;;
29908;SDS011;36247;51.952;6.146;2023-03-21T11:02:03;17.63;;;9.65;;
29908;SDS011;36247;51.952;6.146;2023-03-21T11:04:30;18.52;;;9.00;;
29908;SDS011;36247;51.952;6.146;2023-03-21T11:06:57;19.40;;;9.85;;
29908;SDS011;36247;51.952;6.146;2023-03-21T11:09:26;16.65;;;9.98;;
29908;SDS011;36247;51.952;6.146;2023-03-21T11:12:15;15.93;;;9.13;;
29908;SDS011;36247;51.952;6.146;2023-03-21T11:14:44;20.65;;;9.40;;
29908;SDS011;36247;51.952;6.146;2023-03-21T11:17:18;21.08;;;9.60;;
29908;SDS011;36247;51.952;6.146;2023-03-21T11:19:59;20.70;;;10.52;;
29908;SDS011;36247;51.952;6.146;2023-03-21T11:22:28;18.27;;;8.65;;
29908;SDS011;36247;51.952;6.146;2023-03-21T11:24:59;15.63;;;9.75;;
29908;SDS011;36247;51.952;6.146;2023-03-21T11:27:26;15.07;;;9.13;;
29908;SDS011;36247;51.952;6.146;2023-03-21T11:29:53;16.35;;;9.07;;
29908;SDS011;36247;51.952;6.146;2023-03-21T11:32:33;15.77;;;8.80;;
29908;SDS011;36247;51.952;6.146;2023-03-21T11:40:56;15.23;;;8.23;;
29908;SDS011;36247;51.952;6.146;2023-03-21T11:43:25;15.80;;;8.00;;
29908;SDS011;36247;51.952;6.146;2023-03-21T11:48:40;14.73;;;6.90;;
29908;SDS011;36247;51.952;6.146;2023-03-21T11:51:17;18.48;;;7.40;;
29908;SDS011;36247;51.952;6.146;2023-03-21T11:54:08;12.90;;;7.05;;
29908;SDS011;36247;51.952;6.146;2023-03-21T12:04:38;15.52;;;7.43;;
29908;SDS011;36247;51.952;6.146;2023-03-21T12:13:12;8.52;;;5.97;;
29908;SDS011;36247;51.952;6.146;2023-03-21T12:24:52;11.85;;;6.53;;
29908;SDS011;36247;51.952;6.146;2023-03-21T12:29:59;11.93;;;6.85;;
29908;SDS011;36247;51.952;6.146;2023-03-21T12:35:35;18.05;;;7.50;;
29908;SDS011;36247;51.952;6.146;2023-03-21T12:38:43;11.30;;;6.63;;
29908;SDS011;36247;51.952;6.146;2023-03-21T12:41:25;12.48;;;7.05;;
29908;SDS011;36247;51.952;6.146;2023-03-21T12:46:48;14.77;;;7.28;;
29908;SDS011;36247;51.952;6.146;2023-03-21T12:51:51;16.48;;;7.25;;
29908;SDS011;36247;51.952;6.146;2023-03-21T12:54:30;14.98;;;6.90;;
29908;SDS011;36247;51.952;6.146;2023-03-21T12:57:16;16.85;;;7.47;;
29908;SDS011;36247;51.952;6.146;2023-03-21T13:02:41;15.65;;;7.25;;
29908;SDS011;36247;51.952;6.146;2023-03-21T13:08:18;11.55;;;6.50;;
29908;SDS011;36247;51.952;6.146;2023-03-21T13:11:04;14.00;;;8.10;;
29908;SDS011;36247;51.952;6.146;2023-03-21T13:24:04;14.23;;;6.53;;
29908;SDS011;36247;51.952;6.146;2023-03-21T13:27:48;13.73;;;7.38;;
29908;SDS011;36247;51.952;6.146;2023-03-21T13:32:37;14.30;;;6.93;;
29908;SDS011;36247;51.952;6.146;2023-03-21T13:37:56;14.75;;;6.90;;
29908;SDS011;36247;51.952;6.146;2023-03-21T13:40:27;12.52;;;6.03;;
29908;SDS011;36247;51.952;6.146;2023-03-21T13:43:53;10.60;;;6.32;;
29908;SDS011;36247;51.952;6.146;2023-03-21T13:46:04;13.88;;;6.47;;
29908;SDS011;36247;51.952;6.146;2023-03-21T13:53:59;11.45;;;6.22;;
29908;SDS011;36247;51.952;6.146;2023-03-21T13:56:26;10.70;;;6.50;;
29908;SDS011;36247;51.952;6.146;2023-03-21T13:58:53;8.13;;;5.38;;
29908;SDS011;36247;51.952;6.146;2023-03-21T14:01:26;14.38;;;6.25;;
29908;SDS011;36247;51.952;6.146;2023-03-21T14:04:15;15.85;;;7.05;;
29908;SDS011;36247;51.952;6.146;2023-03-21T14:06:49;13.98;;;6.00;;
29908;SDS011;36247;51.952;6.146;2023-03-21T14:12:10;10.73;;;5.80;;
29908;SDS011;36247;51.952;6.146;2023-03-21T14:14:40;9.27;;;5.35;;
29908;SDS011;36247;51.952;6.146;2023-03-21T14:17:11;9.25;;;5.13;;
29908;SDS011;36247;51.952;6.146;2023-03-21T14:19:50;9.23;;;5.40;;
29908;SDS011;36247;51.952;6.146;2023-03-21T14:22:19;8.57;;;4.70;;
29908;SDS011;36247;51.952;6.146;2023-03-21T14:25:09;7.60;;;5.35;;
29908;SDS011;36247;51.952;6.146;2023-03-21T14:27:33;10.18;;;5.78;;
29908;SDS011;36247;51.952;6.146;2023-03-21T14:30:02;11.75;;;6.47;;
29908;SDS011;36247;51.952;6.146;2023-03-21T14:32:28;15.77;;;5.75;;
29908;SDS011;36247;51.952;6.146;2023-03-21T14:34:55;14.65;;;5.90;;
29908;SDS011;36247;51.952;6.146;2023-03-21T14:39:59;13.60;;;6.05;;
29908;SDS011;36247;51.952;6.146;2023-03-21T14:42:27;10.82;;;5.60;;
29908;SDS011;36247;51.952;6.146;2023-03-21T14:44:58;11.98;;;5.85;;
29908;SDS011;36247;51.952;6.146;2023-03-21T14:47:28;13.20;;;5.82;;
29908;SDS011;36247;51.952;6.146;2023-03-21T14:49:56;13.07;;;5.72;;
29908;SDS011;36247;51.952;6.146;2023-03-21T14:52:24;12.95;;;5.80;;
29908;SDS011;36247;51.952;6.146;2023-03-21T14:54:54;11.45;;;5.55;;
29908;SDS011;36247;51.952;6.146;2023-03-21T14:57:22;10.52;;;5.72;;
29908;SDS011;36247;51.952;6.146;2023-03-21T14:59:52;10.65;;;6.47;;
29908;SDS011;36247;51.952;6.146;2023-03-21T15:04:50;13.45;;;6.07;;
29908;SDS011;36247;51.952;6.146;2023-03-21T15:07:22;8.48;;;5.90;;
29908;SDS011;36247;51.952;6.146;2023-03-21T15:09:54;9.68;;;6.32;;
29908;SDS011;36247;51.952;6.146;2023-03-21T15:12:21;10.57;;;6.03;;
29908;SDS011;36247;51.952;6.146;2023-03-21T15:14:47;9.48;;;5.53;;
29908;SDS011;36247;51.952;6.146;2023-03-21T15:17:13;13.07;;;6.32;;
29908;SDS011;36247;51.952;6.146;2023-03-21T15:19:40;16.45;;;6.50;;
29908;SDS011;36247;51.952;6.146;2023-03-21T15:24:58;15.40;;;6.18;;
29908;SDS011;36247;51.952;6.146;2023-03-21T15:27:27;15.48;;;7.28;;
29908;SDS011;36247;51.952;6.146;2023-03-21T15:29:56;9.98;;;6.18;;
29908;SDS011;36247;51.952;6.146;2023-03-21T15:32:23;10.55;;;6.40;;
29908;SDS011;36247;51.952;6.146;2023-03-21T15:34:52;14.43;;;6.53;;
29908;SDS011;36247;51.952;6.146;2023-03-21T15:37:26;13.85;;;6.05;;
29908;SDS011;36247;51.952;6.146;2023-03-21T15:39:53;16.23;;;7.03;;
29908;SDS011;36247;51.952;6.146;2023-03-21T15:42:36;11.35;;;7.13;;
29908;SDS011;36247;51.952;6.146;2023-03-21T15:45:09;12.38;;;6.20;;
29908;SDS011;36247;51.952;6.146;2023-03-21T15:47:40;10.98;;;6.40;;
29908;SDS011;36247;51.952;6.146;2023-03-21T15:52:55;8.85;;;6.00;;
29908;SDS011;36247;51.952;6.146;2023-03-21T15:55:28;13.95;;;6.22;;
29908;SDS011;36247;51.952;6.146;2023-03-21T15:58:33;9.20;;;6.28;;
29908;SDS011;36247;51.952;6.146;2023-03-21T16:01:02;17.88;;;6.57;;
29908;SDS011;36247;51.952;6.146;2023-03-21T16:03:35;14.73;;;6.25;;
29908;SDS011;36247;51.952;6.146;2023-03-21T16:06:05;14.77;;;6.15;;
29908;SDS011;36247;51.952;6.146;2023-03-21T16:08:46;15.57;;;6.28;;
29908;SDS011;36247;51.952;6.146;2023-03-21T16:13:42;9.48;;;6.32;;
29908;SDS011;36247;51.952;6.146;2023-03-21T16:16:21;13.68;;;6.57;;
29908;SDS011;36247;51.952;6.146;2023-03-21T16:18:51;11.80;;;6.55;;
29908;SDS011;36247;51.952;6.146;2023-03-21T16:21:18;11.25;;;5.63;;
29908;SDS011;36247;51.952;6.146;2023-03-21T16:23:46;12.10;;;6.10;;
29908;SDS011;36247;51.952;6.146;2023-03-21T16:26:13;13.00;;;6.55;;
29908;SDS011;36247;51.952;6.146;2023-03-21T16:28:40;10.68;;;5.72;;
29908;SDS011;36247;51.952;6.146;2023-03-21T16:31:16;10.85;;;6.10;;
29908;SDS011;36247;51.952;6.146;2023-03-21T16:33:46;19.20;;;5.97;;
29908;SDS011;36247;51.952;6.146;2023-03-21T16:36:31;9.52;;;6.80;;
29908;SDS011;36247;51.952;6.146;2023-03-21T16:39:00;10.10;;;6.05;;
29908;SDS011;36247;51.952;6.146;2023-03-21T16:41:40;9.75;;;5.63;;
29908;SDS011;36247;51.952;6.146;2023-03-21T16:44:06;10.02;;;5.70;;
29908;SDS011;36247;51.952;6.146;2023-03-21T16:46:31;8.77;;;5.35;;
29908;SDS011;36247;51.952;6.146;2023-03-21T16:48:57;9.30;;;5.93;;
29908;SDS011;36247;51.952;6.146;2023-03-21T16:51:24;9.35;;;5.85;;
29908;SDS011;36247;51.952;6.146;2023-03-21T16:53:54;9.00;;;5.93;;
29908;SDS011;36247;51.952;6.146;2023-03-21T16:56:25;10.50;;;6.25;;
29908;SDS011;36247;51.952;6.146;2023-03-21T16:58:53;9.35;;;5.78;;
29908;SDS011;36247;51.952;6.146;2023-03-21T17:01:20;11.45;;;5.78;;
29908;SDS011;36247;51.952;6.146;2023-03-21T17:03:51;9.95;;;5.68;;
29908;SDS011;36247;51.952;6.146;2023-03-21T17:06:19;9.00;;;5.20;;
29908;SDS011;36247;51.952;6.146;2023-03-21T17:08:46;12.52;;;6.00;;
29908;SDS011;36247;51.952;6.146;2023-03-21T17:11:13;9.82;;;5.78;;